sensor_id;sensor_type;location;lat;lon;timestamp;P1;durP1;ratioP1;P2;durP2;ratioP2
71435;SDS011;59251;51.326;12.370;2023-04-25T00:01:02;9.83;;;3.83;;
71435;SDS011;59251;51.326;12.370;2023-04-25T00:03:29;10.00;;;3.50;;
71435;SDS011;59251;51.326;12.370;2023-04-25T00:05:55;13.38;;;3.17;;
71435;SDS011;59251;51.326;12.370;2023-04-25T00:08:21;9.95;;;3.30;;
71435;SDS011;59251;51.326;12.370;2023-04-25T00:10:47;8.37;;;3.10;;
71435;SDS011;59251;51.326;12.370;2023-04-25T00:13:13;11.13;;;3.08;;
71435;SDS011;59251;51.326;12.370;2023-04-25T00:15:39;9.68;;;3.03;;
71435;SDS011;59251;51.326;12.370;2023-04-25T00:18:06;9.23;;;3.45;;
71435;SDS011;59251;51.326;12.370;2023-04-25T00:20:32;10.20;;;3.88;;
71435;SDS011;59251;51.326;12.370;2023-04-25T00:22:57;9.25;;;3.55;;
71435;SDS011;59251;51.326;12.370;2023-04-25T00:25:23;11.10;;;3.77;;
71435;SDS011;59251;51.326;12.370;2023-04-25T00:27:48;10.90;;;4.00;;
71435;SDS011;59251;51.326;12.370;2023-04-25T00:30:13;12.57;;;3.93;;
71435;SDS011;59251;51.326;12.370;2023-04-25T00:32:39;12.35;;;3.78;;
71435;SDS011;59251;51.326;12.370;2023-04-25T00:35:05;9.35;;;4.15;;
71435;SDS011;59251;51.326;12.370;2023-04-25T00:37:30;12.53;;;4.10;;
71435;SDS011;59251;51.326;12.370;2023-04-25T00:39:57;11.82;;;4.45;;
71435;SDS011;59251;51.326;12.370;2023-04-25T00:42:23;13.53;;;5.30;;
71435;SDS011;59251;51.326;12.370;2023-04-25T00:44:49;9.38;;;3.88;;
71435;SDS011;59251;51.326;12.370;2023-04-25T00:47:17;14.18;;;4.78;;
71435;SDS011;59251;51.326;12.370;2023-04-25T00:49:42;10.07;;;3.92;;
71435;SDS011;59251;51.326;12.370;2023-04-25T00:52:08;10.50;;;4.60;;
71435;SDS011;59251;51.326;12.370;2023-04-25T00:54:33;11.17;;;4.33;;
71435;SDS011;59251;51.326;12.370;2023-04-25T00:56:58;12.43;;;4.20;;
71435;SDS011;59251;51.326;12.370;2023-04-25T00:59:25;9.68;;;3.92;;
71435;SDS011;59251;51.326;12.370;2023-04-25T01:01:52;11.00;;;4.43;;
71435;SDS011;59251;51.326;12.370;2023-04-25T01:04:17;12.03;;;4.63;;
71435;SDS011;59251;51.326;12.370;2023-04-25T01:06:43;10.43;;;4.25;;
71435;SDS011;59251;51.326;12.370;2023-04-25T01:09:09;9.67;;;3.90;;
71435;SDS011;59251;51.326;12.370;2023-04-25T01:11:34;9.60;;;3.80;;
71435;SDS011;59251;51.326;12.370;2023-04-25T01:14:00;9.52;;;4.28;;
71435;SDS011;59251;51.326;12.370;2023-04-25T01:16:26;12.40;;;4.28;;
71435;SDS011;59251;51.326;12.370;2023-04-25T01:18:53;12.40;;;4.87;;
71435;SDS011;59251;51.326;12.370;2023-04-25T01:21:19;12.80;;;4.82;;
71435;SDS011;59251;51.326;12.370;2023-04-25T01:23:45;13.85;;;4.45;;
71435;SDS011;59251;51.326;12.370;2023-04-25T01:26:11;10.70;;;4.47;;
71435;SDS011;59251;51.326;12.370;2023-04-25T01:28:37;12.43;;;4.10;;
71435;SDS011;59251;51.326;12.370;2023-04-25T01:31:07;11.48;;;4.22;;
71435;SDS011;59251;51.326;12.370;2023-04-25T01:33:32;10.97;;;4.00;;
71435;SDS011;59251;51.326;12.370;2023-04-25T01:35:58;9.70;;;3.88;;
71435;SDS011;59251;51.326;12.370;2023-04-25T01:38:24;9.70;;;4.03;;
71435;SDS011;59251;51.326;12.370;2023-04-25T01:40:50;9.70;;;4.20;;
71435;SDS011;59251;51.326;12.370;2023-04-25T01:43:17;13.65;;;4.38;;
71435;SDS011;59251;51.326;12.370;2023-04-25T01:45:43;11.05;;;3.80;;
71435;SDS011;59251;51.326;12.370;2023-04-25T01:48:09;13.27;;;4.97;;
71435;SDS011;59251;51.326;12.370;2023-04-25T01:50:38;10.40;;;4.38;;
71435;SDS011;59251;51.326;12.370;2023-04-25T01:53:04;11.55;;;4.18;;
71435;SDS011;59251;51.326;12.370;2023-04-25T01:55:30;10.35;;;4.45;;
71435;SDS011;59251;51.326;12.370;2023-04-25T01:57:55;10.23;;;4.53;;
71435;SDS011;59251;51.326;12.370;2023-04-25T02:00:21;12.57;;;4.67;;
71435;SDS011;59251;51.326;12.370;2023-04-25T02:02:46;11.93;;;4.50;;
71435;SDS011;59251;51.326;12.370;2023-04-25T02:05:12;10.50;;;4.33;;
71435;SDS011;59251;51.326;12.370;2023-04-25T02:07:37;10.38;;;4.20;;
71435;SDS011;59251;51.326;12.370;2023-04-25T02:10:03;12.48;;;4.47;;
71435;SDS011;59251;51.326;12.370;2023-04-25T02:12:28;10.57;;;4.37;;
71435;SDS011;59251;51.326;12.370;2023-04-25T02:14:54;9.40;;;4.10;;
71435;SDS011;59251;51.326;12.370;2023-04-25T02:17:19;12.57;;;4.45;;
71435;SDS011;59251;51.326;12.370;2023-04-25T02:19:46;12.33;;;4.70;;
71435;SDS011;59251;51.326;12.370;2023-04-25T02:22:12;12.88;;;5.18;;
71435;SDS011;59251;51.326;12.370;2023-04-25T02:24:37;10.43;;;4.13;;
71435;SDS011;59251;51.326;12.370;2023-04-25T02:27:03;10.20;;;4.47;;
71435;SDS011;59251;51.326;12.370;2023-04-25T02:29:29;13.50;;;5.27;;
71435;SDS011;59251;51.326;12.370;2023-04-25T02:31:55;13.20;;;4.72;;
71435;SDS011;59251;51.326;12.370;2023-04-25T02:34:20;9.77;;;4.30;;
71435;SDS011;59251;51.326;12.370;2023-04-25T02:36:45;11.67;;;4.30;;
71435;SDS011;59251;51.326;12.370;2023-04-25T02:39:11;11.60;;;4.53;;
71435;SDS011;59251;51.326;12.370;2023-04-25T02:41:36;10.73;;;3.93;;
71435;SDS011;59251;51.326;12.370;2023-04-25T02:44:02;13.93;;;4.45;;
71435;SDS011;59251;51.326;12.370;2023-04-25T02:46:27;10.95;;;4.63;;
71435;SDS011;59251;51.326;12.370;2023-04-25T02:48:52;13.40;;;4.33;;
71435;SDS011;59251;51.326;12.370;2023-04-25T02:51:18;12.17;;;4.07;;
71435;SDS011;59251;51.326;12.370;2023-04-25T02:53:43;12.23;;;4.53;;
71435;SDS011;59251;51.326;12.370;2023-04-25T02:56:09;11.48;;;4.68;;
71435;SDS011;59251;51.326;12.370;2023-04-25T02:58:34;12.37;;;4.43;;
71435;SDS011;59251;51.326;12.370;2023-04-25T03:01:00;12.00;;;4.53;;
71435;SDS011;59251;51.326;12.370;2023-04-25T03:03:25;10.53;;;5.03;;
71435;SDS011;59251;51.326;12.370;2023-04-25T03:05:51;15.87;;;5.70;;
71435;SDS011;59251;51.326;12.370;2023-04-25T03:08:17;13.57;;;5.07;;
71435;SDS011;59251;51.326;12.370;2023-04-25T03:10:43;13.65;;;5.00;;
71435;SDS011;59251;51.326;12.370;2023-04-25T03:13:09;12.52;;;4.75;;
71435;SDS011;59251;51.326;12.370;2023-04-25T03:15:35;11.97;;;4.83;;
71435;SDS011;59251;51.326;12.370;2023-04-25T03:18:01;13.05;;;4.95;;
71435;SDS011;59251;51.326;12.370;2023-04-25T03:20:27;10.95;;;4.57;;
71435;SDS011;59251;51.326;12.370;2023-04-25T03:22:52;13.40;;;4.90;;
71435;SDS011;59251;51.326;12.370;2023-04-25T03:25:18;12.47;;;4.93;;
71435;SDS011;59251;51.326;12.370;2023-04-25T03:27:43;14.10;;;5.33;;
71435;SDS011;59251;51.326;12.370;2023-04-25T03:30:09;13.70;;;4.70;;
71435;SDS011;59251;51.326;12.370;2023-04-25T03:32:34;10.95;;;4.72;;
71435;SDS011;59251;51.326;12.370;2023-04-25T03:35:00;13.30;;;4.83;;
71435;SDS011;59251;51.326;12.370;2023-04-25T03:37:25;11.57;;;4.30;;
71435;SDS011;59251;51.326;12.370;2023-04-25T03:39:51;14.00;;;5.00;;
71435;SDS011;59251;51.326;12.370;2023-04-25T03:42:16;12.77;;;4.60;;
71435;SDS011;59251;51.326;12.370;2023-04-25T03:44:42;10.47;;;3.90;;
71435;SDS011;59251;51.326;12.370;2023-04-25T03:47:08;12.00;;;4.30;;
71435;SDS011;59251;51.326;12.370;2023-04-25T03:49:34;12.27;;;4.30;;
71435;SDS011;59251;51.326;12.370;2023-04-25T03:51:59;14.13;;;4.93;;
71435;SDS011;59251;51.326;12.370;2023-04-25T03:54:25;11.13;;;4.53;;
71435;SDS011;59251;51.326;12.370;2023-04-25T03:56:50;14.97;;;4.50;;
71435;SDS011;59251;51.326;12.370;2023-04-25T03:59:16;13.65;;;4.45;;
71435;SDS011;59251;51.326;12.370;2023-04-25T04:01:41;9.47;;;4.30;;
71435;SDS011;59251;51.326;12.370;2023-04-25T04:04:06;12.57;;;4.53;;
71435;SDS011;59251;51.326;12.370;2023-04-25T04:06:32;15.23;;;4.33;;
71435;SDS011;59251;51.326;12.370;2023-04-25T04:08:58;14.15;;;4.95;;
71435;SDS011;59251;51.326;12.370;2023-04-25T04:11:23;12.77;;;4.60;;
71435;SDS011;59251;51.326;12.370;2023-04-25T04:13:49;13.70;;;4.60;;
71435;SDS011;59251;51.326;12.370;2023-04-25T04:16:14;15.02;;;5.15;;
71435;SDS011;59251;51.326;12.370;2023-04-25T04:18:40;12.50;;;5.27;;
71435;SDS011;59251;51.326;12.370;2023-04-25T04:21:05;14.47;;;5.23;;
71435;SDS011;59251;51.326;12.370;2023-04-25T04:23:30;14.13;;;5.73;;
71435;SDS011;59251;51.326;12.370;2023-04-25T04:25:56;14.10;;;5.22;;
71435;SDS011;59251;51.326;12.370;2023-04-25T04:28:21;14.35;;;5.30;;
71435;SDS011;59251;51.326;12.370;2023-04-25T04:30:47;12.47;;;5.47;;
71435;SDS011;59251;51.326;12.370;2023-04-25T04:33:12;12.80;;;4.97;;
71435;SDS011;59251;51.326;12.370;2023-04-25T04:35:40;14.50;;;5.07;;
71435;SDS011;59251;51.326;12.370;2023-04-25T04:38:06;15.48;;;4.95;;
71435;SDS011;59251;51.326;12.370;2023-04-25T04:40:31;18.17;;;5.00;;
71435;SDS011;59251;51.326;12.370;2023-04-25T04:42:57;14.70;;;5.30;;
71435;SDS011;59251;51.326;12.370;2023-04-25T04:45:23;13.97;;;5.90;;
71435;SDS011;59251;51.326;12.370;2023-04-25T04:47:48;15.15;;;5.28;;
71435;SDS011;59251;51.326;12.370;2023-04-25T04:50:15;16.00;;;5.00;;
71435;SDS011;59251;51.326;12.370;2023-04-25T04:52:41;14.38;;;5.28;;
71435;SDS011;59251;51.326;12.370;2023-04-25T04:55:07;14.17;;;5.27;;
71435;SDS011;59251;51.326;12.370;2023-04-25T04:57:33;14.57;;;5.53;;
71435;SDS011;59251;51.326;12.370;2023-04-25T04:59:59;16.48;;;4.93;;
71435;SDS011;59251;51.326;12.370;2023-04-25T05:02:25;13.95;;;5.20;;
71435;SDS011;59251;51.326;12.370;2023-04-25T05:04:51;15.77;;;4.83;;
71435;SDS011;59251;51.326;12.370;2023-04-25T05:07:17;17.17;;;4.90;;
71435;SDS011;59251;51.326;12.370;2023-04-25T05:09:43;18.27;;;6.03;;
71435;SDS011;59251;51.326;12.370;2023-04-25T05:12:08;14.10;;;5.23;;
71435;SDS011;59251;51.326;12.370;2023-04-25T05:14:34;13.17;;;4.93;;
71435;SDS011;59251;51.326;12.370;2023-04-25T05:16:59;12.85;;;4.60;;
71435;SDS011;59251;51.326;12.370;2023-04-25T05:19:25;13.40;;;4.97;;
71435;SDS011;59251;51.326;12.370;2023-04-25T05:21:50;13.60;;;5.23;;
71435;SDS011;59251;51.326;12.370;2023-04-25T05:24:15;11.77;;;5.10;;
71435;SDS011;59251;51.326;12.370;2023-04-25T05:26:41;14.80;;;4.70;;
71435;SDS011;59251;51.326;12.370;2023-04-25T05:29:06;10.60;;;4.70;;
71435;SDS011;59251;51.326;12.370;2023-04-25T05:31:32;11.57;;;5.07;;
71435;SDS011;59251;51.326;12.370;2023-04-25T05:33:57;10.20;;;4.60;;
71435;SDS011;59251;51.326;12.370;2023-04-25T05:36:23;13.57;;;5.43;;
71435;SDS011;59251;51.326;12.370;2023-04-25T05:38:48;14.87;;;5.30;;
71435;SDS011;59251;51.326;12.370;2023-04-25T05:41:14;13.63;;;5.30;;
71435;SDS011;59251;51.326;12.370;2023-04-25T05:43:39;11.90;;;4.47;;
71435;SDS011;59251;51.326;12.370;2023-04-25T05:46:10;15.98;;;4.93;;
71435;SDS011;59251;51.326;12.370;2023-04-25T05:48:35;13.97;;;4.20;;
71435;SDS011;59251;51.326;12.370;2023-04-25T05:51:01;13.18;;;3.80;;
71435;SDS011;59251;51.326;12.370;2023-04-25T05:53:26;11.55;;;3.92;;
71435;SDS011;59251;51.326;12.370;2023-04-25T05:55:51;12.53;;;3.73;;
71435;SDS011;59251;51.326;12.370;2023-04-25T05:58:17;9.43;;;2.70;;
71435;SDS011;59251;51.326;12.370;2023-04-25T06:00:42;12.70;;;4.40;;
71435;SDS011;59251;51.326;12.370;2023-04-25T06:03:07;13.00;;;4.10;;
71435;SDS011;59251;51.326;12.370;2023-04-25T06:05:34;12.90;;;3.42;;
71435;SDS011;59251;51.326;12.370;2023-04-25T06:08:00;13.38;;;4.65;;
71435;SDS011;59251;51.326;12.370;2023-04-25T06:10:26;12.27;;;4.23;;
71435;SDS011;59251;51.326;12.370;2023-04-25T06:12:51;12.33;;;4.70;;
71435;SDS011;59251;51.326;12.370;2023-04-25T06:15:17;13.37;;;4.00;;
71435;SDS011;59251;51.326;12.370;2023-04-25T06:17:42;13.57;;;4.22;;
71435;SDS011;59251;51.326;12.370;2023-04-25T06:20:08;10.77;;;3.90;;
71435;SDS011;59251;51.326;12.370;2023-04-25T06:22:33;11.60;;;3.92;;
71435;SDS011;59251;51.326;12.370;2023-04-25T06:24:59;8.50;;;3.70;;
71435;SDS011;59251;51.326;12.370;2023-04-25T06:27:27;12.87;;;3.20;;
71435;SDS011;59251;51.326;12.370;2023-04-25T06:29:53;10.85;;;3.63;;
71435;SDS011;59251;51.326;12.370;2023-04-25T06:32:18;13.63;;;4.33;;
71435;SDS011;59251;51.326;12.370;2023-04-25T06:34:44;12.85;;;5.00;;
71435;SDS011;59251;51.326;12.370;2023-04-25T06:37:09;13.60;;;3.80;;
71435;SDS011;59251;51.326;12.370;2023-04-25T06:39:34;8.93;;;3.13;;
71435;SDS011;59251;51.326;12.370;2023-04-25T06:42:00;11.67;;;3.40;;
71435;SDS011;59251;51.326;12.370;2023-04-25T06:44:25;12.20;;;4.77;;
71435;SDS011;59251;51.326;12.370;2023-04-25T06:46:51;14.00;;;5.00;;
71435;SDS011;59251;51.326;12.370;2023-04-25T06:49:16;16.27;;;4.90;;
71435;SDS011;59251;51.326;12.370;2023-04-25T06:51:42;13.73;;;4.87;;
71435;SDS011;59251;51.326;12.370;2023-04-25T06:54:07;12.30;;;4.23;;
71435;SDS011;59251;51.326;12.370;2023-04-25T06:56:32;11.47;;;3.70;;
71435;SDS011;59251;51.326;12.370;2023-04-25T06:58:58;11.10;;;3.90;;
71435;SDS011;59251;51.326;12.370;2023-04-25T07:01:25;10.52;;;3.67;;
71435;SDS011;59251;51.326;12.370;2023-04-25T07:03:50;11.90;;;4.50;;
71435;SDS011;59251;51.326;12.370;2023-04-25T07:06:16;11.30;;;3.72;;
71435;SDS011;59251;51.326;12.370;2023-04-25T07:08:41;12.55;;;3.63;;
71435;SDS011;59251;51.326;12.370;2023-04-25T07:11:06;11.97;;;4.30;;
71435;SDS011;59251;51.326;12.370;2023-04-25T07:13:32;10.27;;;4.13;;
71435;SDS011;59251;51.326;12.370;2023-04-25T07:15:57;15.10;;;4.40;;
71435;SDS011;59251;51.326;12.370;2023-04-25T07:18:22;14.27;;;4.30;;
71435;SDS011;59251;51.326;12.370;2023-04-25T07:20:48;14.17;;;4.73;;
71435;SDS011;59251;51.326;12.370;2023-04-25T07:23:13;10.87;;;3.70;;
71435;SDS011;59251;51.326;12.370;2023-04-25T07:25:39;15.70;;;4.60;;
71435;SDS011;59251;51.326;12.370;2023-04-25T07:28:04;16.33;;;4.00;;
71435;SDS011;59251;51.326;12.370;2023-04-25T07:30:29;11.13;;;3.83;;
71435;SDS011;59251;51.326;12.370;2023-04-25T07:32:55;13.98;;;4.63;;
71435;SDS011;59251;51.326;12.370;2023-04-25T07:35:20;12.80;;;4.00;;
71435;SDS011;59251;51.326;12.370;2023-04-25T07:37:46;12.40;;;4.10;;
71435;SDS011;59251;51.326;12.370;2023-04-25T07:40:11;14.97;;;4.83;;
71435;SDS011;59251;51.326;12.370;2023-04-25T07:42:37;13.63;;;4.43;;
71435;SDS011;59251;51.326;12.370;2023-04-25T07:45:02;14.90;;;4.80;;
71435;SDS011;59251;51.326;12.370;2023-04-25T07:47:28;11.40;;;4.32;;
71435;SDS011;59251;51.326;12.370;2023-04-25T07:49:53;14.33;;;5.23;;
71435;SDS011;59251;51.326;12.370;2023-04-25T07:52:19;14.37;;;5.10;;
71435;SDS011;59251;51.326;12.370;2023-04-25T07:54:44;13.60;;;4.68;;
71435;SDS011;59251;51.326;12.370;2023-04-25T07:57:10;14.90;;;5.23;;
71435;SDS011;59251;51.326;12.370;2023-04-25T07:59:35;17.10;;;4.90;;
71435;SDS011;59251;51.326;12.370;2023-04-25T08:02:01;12.85;;;4.88;;
71435;SDS011;59251;51.326;12.370;2023-04-25T08:04:27;12.47;;;4.23;;
71435;SDS011;59251;51.326;12.370;2023-04-25T08:06:53;11.77;;;4.68;;
71435;SDS011;59251;51.326;12.370;2023-04-25T08:09:21;9.75;;;3.80;;
71435;SDS011;59251;51.326;12.370;2023-04-25T08:11:46;10.47;;;3.30;;
71435;SDS011;59251;51.326;12.370;2023-04-25T08:14:12;10.20;;;2.70;;
71435;SDS011;59251;51.326;12.370;2023-04-25T08:16:38;8.77;;;1.55;;
71435;SDS011;59251;51.326;12.370;2023-04-25T08:19:03;9.27;;;1.87;;
71435;SDS011;59251;51.326;12.370;2023-04-25T08:21:29;10.57;;;1.90;;
71435;SDS011;59251;51.326;12.370;2023-04-25T08:23:55;8.60;;;1.67;;
71435;SDS011;59251;51.326;12.370;2023-04-25T08:26:20;10.10;;;1.50;;
71435;SDS011;59251;51.326;12.370;2023-04-25T08:28:46;8.30;;;1.50;;
71435;SDS011;59251;51.326;12.370;2023-04-25T08:31:11;10.57;;;1.50;;
71435;SDS011;59251;51.326;12.370;2023-04-25T08:33:37;9.90;;;1.40;;
71435;SDS011;59251;51.326;12.370;2023-04-25T08:36:02;12.50;;;2.00;;
71435;SDS011;59251;51.326;12.370;2023-04-25T08:38:28;7.72;;;1.77;;
71435;SDS011;59251;51.326;12.370;2023-04-25T08:40:53;8.67;;;1.80;;
71435;SDS011;59251;51.326;12.370;2023-04-25T08:43:20;9.25;;;1.45;;
71435;SDS011;59251;51.326;12.370;2023-04-25T08:45:46;7.53;;;1.20;;
71435;SDS011;59251;51.326;12.370;2023-04-25T08:48:12;11.68;;;1.83;;
71435;SDS011;59251;51.326;12.370;2023-04-25T08:50:50;12.60;;;1.60;;
71435;SDS011;59251;51.326;12.370;2023-04-25T08:53:17;12.10;;;2.33;;
71435;SDS011;59251;51.326;12.370;2023-04-25T08:55:48;7.97;;;1.60;;
71435;SDS011;59251;51.326;12.370;2023-04-25T08:58:15;8.73;;;1.38;;
71435;SDS011;59251;51.326;12.370;2023-04-25T09:00:40;11.35;;;1.30;;
71435;SDS011;59251;51.326;12.370;2023-04-25T09:03:06;11.97;;;1.47;;
71435;SDS011;59251;51.326;12.370;2023-04-25T09:05:34;10.80;;;1.50;;
71435;SDS011;59251;51.326;12.370;2023-04-25T09:08:01;8.30;;;1.83;;
71435;SDS011;59251;51.326;12.370;2023-04-25T09:10:27;12.98;;;2.13;;
71435;SDS011;59251;51.326;12.370;2023-04-25T09:13:09;13.70;;;1.73;;
71435;SDS011;59251;51.326;12.370;2023-04-25T09:18:31;7.97;;;2.10;;
71435;SDS011;59251;51.326;12.370;2023-04-25T09:20:58;9.90;;;1.80;;
71435;SDS011;59251;51.326;12.370;2023-04-25T09:23:30;11.90;;;1.80;;
71435;SDS011;59251;51.326;12.370;2023-04-25T09:26:06;16.40;;;4.32;;
71435;SDS011;59251;51.326;12.370;2023-04-25T09:28:32;12.98;;;2.00;;
71435;SDS011;59251;51.326;12.370;2023-04-25T09:30:57;10.90;;;1.70;;
71435;SDS011;59251;51.326;12.370;2023-04-25T09:33:32;16.40;;;2.15;;
71435;SDS011;59251;51.326;12.370;2023-04-25T09:36:04;10.25;;;1.48;;
71435;SDS011;59251;51.326;12.370;2023-04-25T09:38:32;17.35;;;2.15;;
71435;SDS011;59251;51.326;12.370;2023-04-25T09:41:05;10.70;;;2.40;;
71435;SDS011;59251;51.326;12.370;2023-04-25T09:43:30;8.43;;;1.63;;
71435;SDS011;59251;51.326;12.370;2023-04-25T09:45:56;13.82;;;1.85;;
71435;SDS011;59251;51.326;12.370;2023-04-25T09:48:24;11.57;;;2.20;;
71435;SDS011;59251;51.326;12.370;2023-04-25T09:53:28;10.32;;;2.38;;
71435;SDS011;59251;51.326;12.370;2023-04-25T09:55:53;9.10;;;2.17;;
71435;SDS011;59251;51.326;12.370;2023-04-25T09:58:20;14.50;;;2.42;;
71435;SDS011;59251;51.326;12.370;2023-04-25T10:00:46;14.32;;;2.70;;
71435;SDS011;59251;51.326;12.370;2023-04-25T10:03:12;11.23;;;2.00;;
71435;SDS011;59251;51.326;12.370;2023-04-25T10:05:38;14.97;;;2.87;;
71435;SDS011;59251;51.326;12.370;2023-04-25T10:08:06;12.20;;;3.10;;
71435;SDS011;59251;51.326;12.370;2023-04-25T10:10:33;11.65;;;2.10;;
71435;SDS011;59251;51.326;12.370;2023-04-25T10:13:02;12.07;;;2.60;;
71435;SDS011;59251;51.326;12.370;2023-04-25T10:15:30;14.45;;;2.90;;
71435;SDS011;59251;51.326;12.370;2023-04-25T10:17:56;10.83;;;2.70;;
71435;SDS011;59251;51.326;12.370;2023-04-25T10:20:22;13.98;;;2.78;;
71435;SDS011;59251;51.326;12.370;2023-04-25T10:22:48;14.13;;;3.25;;
71435;SDS011;59251;51.326;12.370;2023-04-25T10:25:18;11.63;;;3.67;;
71435;SDS011;59251;51.326;12.370;2023-04-25T10:27:44;13.65;;;3.70;;
71435;SDS011;59251;51.326;12.370;2023-04-25T10:30:11;10.90;;;3.60;;
71435;SDS011;59251;51.326;12.370;2023-04-25T10:32:41;12.13;;;3.30;;
71435;SDS011;59251;51.326;12.370;2023-04-25T10:35:23;13.65;;;4.20;;
71435;SDS011;59251;51.326;12.370;2023-04-25T10:40:34;11.90;;;3.20;;
71435;SDS011;59251;51.326;12.370;2023-04-25T10:43:33;10.33;;;3.37;;
71435;SDS011;59251;51.326;12.370;2023-04-25T10:45:54;14.48;;;3.72;;
71435;SDS011;59251;51.326;12.370;2023-04-25T10:48:29;17.47;;;3.40;;
71435;SDS011;59251;51.326;12.370;2023-04-25T10:51:11;12.27;;;3.58;;
71435;SDS011;59251;51.326;12.370;2023-04-25T10:53:41;14.83;;;3.83;;
71435;SDS011;59251;51.326;12.370;2023-04-25T10:56:11;14.65;;;3.50;;
71435;SDS011;59251;51.326;12.370;2023-04-25T10:58:41;12.60;;;3.17;;
71435;SDS011;59251;51.326;12.370;2023-04-25T11:01:07;16.27;;;4.00;;
71435;SDS011;59251;51.326;12.370;2023-04-25T11:03:37;14.53;;;4.20;;
71435;SDS011;59251;51.326;12.370;2023-04-25T11:06:04;14.95;;;3.95;;
71435;SDS011;59251;51.326;12.370;2023-04-25T11:08:57;15.88;;;4.47;;
71435;SDS011;59251;51.326;12.370;2023-04-25T11:11:22;13.57;;;4.00;;
71435;SDS011;59251;51.326;12.370;2023-04-25T11:13:48;13.60;;;3.85;;
71435;SDS011;59251;51.326;12.370;2023-04-25T11:16:14;14.15;;;4.60;;
71435;SDS011;59251;51.326;12.370;2023-04-25T11:18:41;13.23;;;3.63;;
71435;SDS011;59251;51.326;12.370;2023-04-25T11:21:09;13.23;;;3.60;;
71435;SDS011;59251;51.326;12.370;2023-04-25T11:23:35;12.10;;;3.42;;
71435;SDS011;59251;51.326;12.370;2023-04-25T11:26:01;12.73;;;3.28;;
71435;SDS011;59251;51.326;12.370;2023-04-25T11:28:28;13.88;;;3.72;;
71435;SDS011;59251;51.326;12.370;2023-04-25T11:30:53;13.63;;;3.83;;
71435;SDS011;59251;51.326;12.370;2023-04-25T11:33:22;12.67;;;3.23;;
71435;SDS011;59251;51.326;12.370;2023-04-25T11:35:48;11.98;;;2.60;;
71435;SDS011;59251;51.326;12.370;2023-04-25T11:38:14;11.53;;;3.07;;
71435;SDS011;59251;51.326;12.370;2023-04-25T11:40:39;8.98;;;2.47;;
71435;SDS011;59251;51.326;12.370;2023-04-25T11:43:06;16.15;;;2.72;;
71435;SDS011;59251;51.326;12.370;2023-04-25T11:45:32;11.83;;;2.27;;
71435;SDS011;59251;51.326;12.370;2023-04-25T11:47:57;13.75;;;2.50;;
71435;SDS011;59251;51.326;12.370;2023-04-25T11:50:22;10.73;;;2.37;;
71435;SDS011;59251;51.326;12.370;2023-04-25T11:52:48;9.03;;;1.87;;
71435;SDS011;59251;51.326;12.370;2023-04-25T11:55:15;9.37;;;1.80;;
71435;SDS011;59251;51.326;12.370;2023-04-25T11:57:42;11.63;;;1.88;;
71435;SDS011;59251;51.326;12.370;2023-04-25T12:00:12;8.98;;;1.92;;
71435;SDS011;59251;51.326;12.370;2023-04-25T12:02:41;11.50;;;2.47;;
71435;SDS011;59251;51.326;12.370;2023-04-25T12:05:23;9.87;;;1.90;;
71435;SDS011;59251;51.326;12.370;2023-04-25T12:07:50;9.65;;;1.75;;
71435;SDS011;59251;51.326;12.370;2023-04-25T12:10:16;9.98;;;2.55;;
71435;SDS011;59251;51.326;12.370;2023-04-25T12:12:45;13.07;;;1.93;;
71435;SDS011;59251;51.326;12.370;2023-04-25T12:17:41;12.27;;;2.08;;
71435;SDS011;59251;51.326;12.370;2023-04-25T12:20:11;11.15;;;2.20;;
71435;SDS011;59251;51.326;12.370;2023-04-25T12:22:40;9.95;;;2.25;;
71435;SDS011;59251;51.326;12.370;2023-04-25T12:25:09;14.90;;;2.63;;
71435;SDS011;59251;51.326;12.370;2023-04-25T12:27:35;8.52;;;1.50;;
71435;SDS011;59251;51.326;12.370;2023-04-25T12:30:00;10.40;;;1.80;;
71435;SDS011;59251;51.326;12.370;2023-04-25T12:32:26;8.70;;;1.77;;
71435;SDS011;59251;51.326;12.370;2023-04-25T12:34:52;13.73;;;2.97;;
71435;SDS011;59251;51.326;12.370;2023-04-25T12:37:17;9.93;;;1.80;;
71435;SDS011;59251;51.326;12.370;2023-04-25T12:39:43;9.73;;;1.50;;
71435;SDS011;59251;51.326;12.370;2023-04-25T12:42:08;10.07;;;1.80;;
71435;SDS011;59251;51.326;12.370;2023-04-25T12:44:36;10.25;;;1.90;;
71435;SDS011;59251;51.326;12.370;2023-04-25T12:47:02;10.05;;;2.00;;
71435;SDS011;59251;51.326;12.370;2023-04-25T12:49:28;12.47;;;1.77;;
71435;SDS011;59251;51.326;12.370;2023-04-25T12:51:53;8.60;;;1.57;;
71435;SDS011;59251;51.326;12.370;2023-04-25T12:54:18;8.77;;;1.80;;
71435;SDS011;59251;51.326;12.370;2023-04-25T12:56:44;9.13;;;1.13;;
71435;SDS011;59251;51.326;12.370;2023-04-25T12:59:11;8.38;;;1.23;;
71435;SDS011;59251;51.326;12.370;2023-04-25T13:01:36;5.17;;;0.83;;
71435;SDS011;59251;51.326;12.370;2023-04-25T13:04:02;10.67;;;1.23;;
71435;SDS011;59251;51.326;12.370;2023-04-25T13:06:27;8.00;;;1.30;;
71435;SDS011;59251;51.326;12.370;2023-04-25T13:08:54;6.97;;;0.93;;
71435;SDS011;59251;51.326;12.370;2023-04-25T13:11:20;7.45;;;1.05;;
71435;SDS011;59251;51.326;12.370;2023-04-25T13:13:45;6.87;;;1.20;;
71435;SDS011;59251;51.326;12.370;2023-04-25T13:16:11;5.87;;;1.10;;
71435;SDS011;59251;51.326;12.370;2023-04-25T13:18:38;8.23;;;1.20;;
71435;SDS011;59251;51.326;12.370;2023-04-25T13:21:04;9.95;;;0.95;;
71435;SDS011;59251;51.326;12.370;2023-04-25T13:23:30;7.07;;;0.70;;
71435;SDS011;59251;51.326;12.370;2023-04-25T13:25:56;7.27;;;1.03;;
71435;SDS011;59251;51.326;12.370;2023-04-25T13:28:26;7.05;;;0.90;;
71435;SDS011;59251;51.326;12.370;2023-04-25T13:30:52;6.50;;;1.05;;
71435;SDS011;59251;51.326;12.370;2023-04-25T13:33:18;10.65;;;1.17;;
71435;SDS011;59251;51.326;12.370;2023-04-25T13:35:45;8.73;;;1.10;;
71435;SDS011;59251;51.326;12.370;2023-04-25T13:38:14;6.03;;;0.80;;
71435;SDS011;59251;51.326;12.370;2023-04-25T13:40:40;9.20;;;1.17;;
71435;SDS011;59251;51.326;12.370;2023-04-25T13:43:05;7.20;;;1.03;;
71435;SDS011;59251;51.326;12.370;2023-04-25T13:45:31;10.65;;;1.20;;
71435;SDS011;59251;51.326;12.370;2023-04-25T13:47:57;6.07;;;1.30;;
71435;SDS011;59251;51.326;12.370;2023-04-25T13:50:22;7.70;;;1.40;;
71435;SDS011;59251;51.326;12.370;2023-04-25T13:52:47;6.17;;;1.20;;
71435;SDS011;59251;51.326;12.370;2023-04-25T13:55:13;7.15;;;1.38;;
71435;SDS011;59251;51.326;12.370;2023-04-25T13:57:38;11.10;;;1.50;;
71435;SDS011;59251;51.326;12.370;2023-04-25T14:00:04;8.80;;;1.07;;
71435;SDS011;59251;51.326;12.370;2023-04-25T14:02:36;8.68;;;1.58;;
71435;SDS011;59251;51.326;12.370;2023-04-25T14:05:02;9.90;;;1.43;;
71435;SDS011;59251;51.326;12.370;2023-04-25T14:07:29;5.55;;;1.48;;
71435;SDS011;59251;51.326;12.370;2023-04-25T14:09:55;9.95;;;1.00;;
71435;SDS011;59251;51.326;12.370;2023-04-25T14:12:22;9.40;;;1.35;;
71435;SDS011;59251;51.326;12.370;2023-04-25T14:14:48;8.77;;;1.07;;
71435;SDS011;59251;51.326;12.370;2023-04-25T14:17:13;8.57;;;1.00;;
71435;SDS011;59251;51.326;12.370;2023-04-25T14:19:38;9.27;;;0.80;;
71435;SDS011;59251;51.326;12.370;2023-04-25T14:22:08;7.73;;;0.83;;
71435;SDS011;59251;51.326;12.370;2023-04-25T14:24:33;9.07;;;0.98;;
71435;SDS011;59251;51.326;12.370;2023-04-25T14:26:59;8.60;;;1.27;;
71435;SDS011;59251;51.326;12.370;2023-04-25T14:29:25;4.00;;;0.77;;
71435;SDS011;59251;51.326;12.370;2023-04-25T14:31:51;7.40;;;0.93;;